Time;durP1;ratioP1;P1;durP2;ratioP2;P2;SDS_P1;SDS_P2;PMS_P1;PMS_P2;Temp;Humidity;BMP_temperature;BMP_pressure;BME280_temperature;BME280_humidity;BME280_pressure;Samples;Min_cycle;Max_cycle;Signal;HPM_P1;HPM_P2
2022/01/26 00:05:43;;;;;;;62.92;23.30;;;;;;;4.22;100.00;102288.34;8310899;28;20505;-65
2022/01/26 00:05:51;;;;;;;65.57;23.60;;;;;;;4.19;100.00;102280.44;8341862;28;20063;-65
2022/01/26 00:09:37;;;;;;;66.75;22.98;;;;;;;4.26;100.00;102287.28;8346105;28;20033;-65
2022/01/26 00:13:38;;;;;;;65.22;23.30;;;;;;;4.26;100.00;102284.63;8342380;28;20043;-65
2022/01/26 00:17:38;;;;;;;71.43;24.42;;;;;;;4.21;100.00;102270.53;8339380;28;20112;-65
2022/01/26 00:21:47;;;;;;;74.13;25.83;;;;;;;4.23;100.00;102269.56;8323976;28;20394;-65
2022/01/26 00:26:04;;;;;;;82.28;27.13;;;;;;;4.21;100.00;102274.06;8323363;28;20490;-65
2022/01/26 00:32:56;;;;;;;85.10;27.20;;;;;;;4.18;100.00;102265.31;8299944;28;20053;-65
2022/01/26 00:38:49;;;;;;;87.20;29.83;;;;;;;4.16;100.00;102275.19;8341006;28;20045;-65
2022/01/26 00:42:53;;;;;;;80.75;27.92;;;;;;;4.18;99.38;102273.34;8345210;28;20041;-65
2022/01/26 00:46:53;;;;;;;76.37;28.03;;;;;;;4.15;98.57;102287.72;8337046;28;20068;-64
2022/01/26 00:50:54;;;;;;;73.45;26.77;;;;;;;4.19;98.07;102283.09;8350960;28;20037;-65
2022/01/26 00:54:55;;;;;;;80.95;28.95;;;;;;;4.16;97.41;102277.88;8313044;28;20046;-65
2022/01/26 00:58:55;;;;;;;85.95;30.90;;;;;;;4.22;97.83;102283.00;8311090;28;20486;-65
2022/01/26 01:02:58;;;;;;;89.80;31.92;;;;;;;4.21;97.32;102275.91;8323728;28;20033;-65
2022/01/26 01:07:01;;;;;;;79.68;30.67;;;;;;;4.22;97.78;102266.94;8336395;28;20493;-65
2022/01/26 01:11:02;;;;;;;82.53;32.40;;;;;;;4.23;97.24;102268.66;8375567;28;20865;-65
2022/01/26 01:15:03;;;;;;;83.47;32.80;;;;;;;4.18;97.31;102274.22;8345131;28;20502;-65
2022/01/26 01:19:15;;;;;;;90.25;31.98;;;;;;;4.20;97.71;102274.16;8342468;28;20071;-65
2022/01/26 01:27:49;;;;;;;80.28;30.50;;;;;;;4.15;97.86;102270.78;8341141;28;20032;-65
2022/01/26 01:31:54;;;;;;;100.35;33.45;;;;;;;4.16;98.16;102272.50;8336138;28;20404;-65
2022/01/26 01:35:57;;;;;;;99.38;35.03;;;;;;;4.21;98.01;102266.03;8324502;28;20405;-65
2022/01/26 01:39:58;;;;;;;102.28;35.63;;;;;;;4.19;97.85;102261.69;8326488;28;20045;-65
2022/01/26 01:43:58;;;;;;;100.28;34.40;;;;;;;4.20;97.35;102269.66;8306227;28;20042;-65
2022/01/26 01:47:59;;;;;;;98.82;35.58;;;;;;;4.18;97.42;102266.19;8322415;28;20071;-65
2022/01/26 01:52:03;;;;;;;106.35;34.97;;;;;;;4.20;97.58;102274.16;8312316;28;20053;-65
2022/01/26 01:56:04;;;;;;;106.28;39.05;;;;;;;4.19;97.57;102278.63;8309187;28;20036;-65
2022/01/26 02:00:06;;;;;;;114.95;37.10;;;;;;;4.24;97.86;102275.78;8309525;28;20045;-65
2022/01/26 02:04:07;;;;;;;113.75;38.45;;;;;;;4.24;97.07;102267.75;8330363;28;20047;-65
2022/01/26 02:08:08;;;;;;;115.82;38.13;;;;;;;4.26;97.68;102268.56;8342647;28;20075;-65
2022/01/26 02:12:14;;;;;;;123.15;39.38;;;;;;;4.25;97.34;102262.34;8340078;28;20128;-65
2022/01/26 02:16:26;;;;;;;115.43;38.05;;;;;;;4.24;97.26;102268.59;8342203;28;20502;-65
2022/01/26 02:20:51;;;;;;;120.20;38.67;;;;;;;4.24;97.21;102265.09;8341017;28;20044;-65
2022/01/26 02:51:38;;;;;;;134.00;42.45;;;;;;;4.12;100.00;102245.00;8341359;28;20037;-65
2022/01/26 02:55:46;;;;;;;133.80;39.00;;;;;;;4.09;100.00;102251.34;8346372;28;20095;-65
2022/01/26 03:04:00;;;;;;;127.88;38.58;;;;;;;3.98;100.00;102229.47;8351790;27;20396;-64
2022/01/26 03:08:05;;;;;;;129.38;38.83;;;;;;;4.02;100.00;102238.22;8353443;28;20045;-64
2022/01/26 03:12:07;;;;;;;143.65;43.13;;;;;;;4.00;100.00;102218.72;8349731;28;20041;-64
2022/01/26 03:16:14;;;;;;;129.50;41.22;;;;;;;3.95;100.00;102226.91;8351064;28;20062;-64
2022/01/26 03:20:16;;;;;;;128.77;39.95;;;;;;;3.94;100.00;102225.13;8341192;28;20084;-64
2022/01/26 03:28:42;;;;;;;142.70;39.60;;;;;;;3.96;100.00;102223.28;8320232;28;20033;-64
2022/01/26 03:37:07;;;;;;;156.57;43.10;;;;;;;3.91;100.00;102209.19;8322146;28;20528;-64
2022/01/26 03:42:13;;;;;;;157.95;42.92;;;;;;;3.90;100.00;102202.13;8298104;28;20037;-64
2022/01/26 03:45:28;;;;;;;153.48;42.00;;;;;;;3.89;100.00;102208.41;8347958;28;20102;-64
2022/01/26 03:49:29;;;;;;;148.38;42.60;;;;;;;3.92;100.00;102199.38;8353875;28;20037;-64
2022/01/26 03:53:29;;;;;;;149.52;41.05;;;;;;;3.91;100.00;102187.78;8353060;28;20033;-64
2022/01/26 03:57:30;;;;;;;161.95;44.00;;;;;;;3.94;100.00;102190.34;8339057;28;20049;-64
2022/01/26 04:01:31;;;;;;;155.25;43.90;;;;;;;3.97;100.00;102176.00;8332717;28;20129;-64
2022/01/26 04:05:31;;;;;;;146.63;42.65;;;;;;;4.01;100.00;102178.50;8354902;28;20872;-64
2022/01/26 04:09:32;;;;;;;155.88;43.50;;;;;;;4.07;100.00;102183.63;8342483;28;20092;-64
2022/01/26 04:13:32;;;;;;;161.40;43.13;;;;;;;3.98;100.00;102173.28;8333448;28;20120;-64
2022/01/26 04:17:33;;;;;;;152.73;41.47;;;;;;;3.97;100.00;102171.50;8332843;28;20533;-64
2022/01/26 04:22:09;;;;;;;156.50;42.65;;;;;;;4.01;100.00;102186.53;8330511;28;20042;-64
2022/01/26 04:25:55;;;;;;;157.00;42.67;;;;;;;4.00;100.00;102181.25;8325837;28;20042;-64
2022/01/26 04:29:55;;;;;;;162.15;42.47;;;;;;;4.04;100.00;102189.09;8302611;28;20064;-64
2022/01/26 04:33:56;;;;;;;164.55;43.80;;;;;;;4.03;100.00;102176.63;8310241;28;20553;-64
2022/01/26 04:42:05;;;;;;;164.60;43.42;;;;;;;4.12;100.00;102190.59;8302781;28;20046;-64
2022/01/26 04:46:07;;;;;;;176.77;44.83;;;;;;;3.94;100.00;102187.69;8292835;28;20041;-64
2022/01/26 04:50:10;;;;;;;175.15;43.63;;;;;;;3.92;100.00;102184.22;8315306;28;20486;-64
2022/01/26 04:54:12;;;;;;;170.55;45.08;;;;;;;3.92;100.00;102184.22;8299775;28;20034;-64
2022/01/26 04:58:12;;;;;;;170.75;45.45;;;;;;;3.96;100.00;102188.50;8298925;28;20045;-64
2022/01/26 05:02:13;;;;;;;150.15;41.17;;;;;;;3.95;100.00;102200.16;8301775;28;20501;-64
2022/01/26 05:06:14;;;;;;;144.57;40.85;;;;;;;3.97;100.00;102208.97;8310262;28;20391;-64
2022/01/26 05:10:14;;;;;;;131.13;40.20;;;;;;;4.02;100.00;102220.38;8271137;28;20034;-64
2022/01/26 05:14:15;;;;;;;136.30;38.95;;;;;;;4.09;100.00;102229.91;8315576;28;20476;-64
2022/01/26 05:18:15;;;;;;;141.35;42.35;;;;;;;4.09;100.00;102234.41;8333557;28;20107;-64
2022/01/26 05:22:16;;;;;;;126.45;39.38;;;;;;;4.04;100.00;102229.25;8332466;28;20525;-64
2022/01/26 05:26:17;;;;;;;137.70;41.00;;;;;;;4.03;100.00;102232.81;8325536;28;20107;-64
2022/01/26 05:30:18;;;;;;;133.30;37.22;;;;;;;4.01;100.00;102237.38;8319543;28;20133;-64
2022/01/26 05:34:18;;;;;;;117.57;35.90;;;;;;;4.01;100.00;102247.19;8310688;28;20038;-64
2022/01/26 05:38:19;;;;;;;129.13;38.08;;;;;;;3.99;100.00;102257.97;8332297;28;20064;-64
2022/01/26 05:42:19;;;;;;;125.55;37.88;;;;;;;3.96;100.00;102265.22;8330151;28;20037;-64
2022/01/26 05:46:28;;;;;;;133.00;41.47;;;;;;;3.97;100.00;102262.47;8305327;28;20042;-64
2022/01/26 05:50:28;;;;;;;118.53;39.95;;;;;;;3.91;100.00;102252.00;8327171;28;20052;-64
2022/01/26 05:54:29;;;;;;;120.40;37.42;;;;;;;3.92;100.00;102251.09;8329630;28;20052;-64
2022/01/26 05:58:30;;;;;;;127.90;40.75;;;;;;;3.90;100.00;102255.63;8332042;28;20448;-64
2022/01/26 06:02:31;;;;;;;125.28;38.55;;;;;;;3.84;100.00;102255.84;8323296;28;20045;-64
2022/01/26 06:06:32;;;;;;;122.72;39.58;;;;;;;3.81;100.00;102239.91;8301763;28;20291;-64
2022/01/26 06:10:33;;;;;;;123.63;38.38;;;;;;;3.81;100.00;102218.50;8298675;28;20034;-64
2022/01/26 06:14:33;;;;;;;122.93;39.08;;;;;;;3.78;100.00;102234.66;8298924;28;20121;-64
2022/01/26 06:18:33;;;;;;;129.80;41.88;;;;;;;3.76;100.00;102241.84;8298455;28;20396;-64
2022/01/26 06:22:34;;;;;;;127.50;39.85;;;;;;;3.75;100.00;102240.13;8307813;28;20036;-64
2022/01/26 06:26:34;;;;;;;136.30;40.78;;;;;;;3.69;100.00;102224.31;8309503;28;20049;-64
2022/01/26 06:30:36;;;;;;;132.55;41.63;;;;;;;3.71;100.00;102221.56;8331418;28;20075;-64
2022/01/26 06:34:39;;;;;;;133.82;39.92;;;;;;;3.72;100.00;102226.88;8330671;28;20042;-64
2022/01/26 06:38:41;;;;;;;137.63;43.22;;;;;;;3.80;100.00;102203.41;8304160;28;20045;-64
2022/01/26 06:42:53;;;;;;;133.90;41.58;;;;;;;3.69;100.00;102196.72;8294374;28;20037;-64
2022/01/26 06:51:14;;;;;;;125.40;39.03;;;;;;;3.65;98.08;102236.03;8332475;28;20459;-64
2022/01/26 06:55:16;;;;;;;133.38;41.05;;;;;;;3.69;99.19;102223.44;8335915;28;20068;-64
2022/01/26 06:59:16;;;;;;;141.35;40.65;;;;;;;3.70;98.65;102223.41;8327685;28;20294;-64
2022/01/26 07:03:17;;;;;;;144.02;43.20;;;;;;;3.69;99.60;102229.66;8328361;28;20049;-64
2022/01/26 07:07:17;;;;;;;135.55;41.88;;;;;;;3.73;100.00;102239.28;8325849;28;20037;-64
2022/01/26 07:11:18;;;;;;;138.30;42.63;;;;;;;3.73;100.00;102241.97;8327894;28;20030;-64
2022/01/26 07:19:51;;;;;;;143.75;44.30;;;;;;;3.69;100.00;102231.47;8323804;28;20037;-64
2022/01/26 07:23:52;;;;;;;144.15;44.97;;;;;;;3.69;100.00;102226.97;8326109;28;20048;-65
2022/01/26 07:27:52;;;;;;;171.48;45.63;;;;;;;3.71;100.00;102225.13;8322324;28;20451;-64
2022/01/26 07:31:53;;;;;;;155.32;45.38;;;;;;;3.69;100.00;102221.63;8325261;28;20103;-65
2022/01/26 07:35:53;;;;;;;162.27;49.35;;;;;;;3.66;100.00;102219.06;8323725;28;20030;-65
2022/01/26 07:40:09;;;;;;;158.35;44.28;;;;;;;3.69;100.00;102226.97;8323208;28;20029;-65
2022/01/26 07:44:10;;;;;;;162.45;47.47;;;;;;;3.69;99.39;102243.03;8323309;28;20432;-65
2022/01/26 07:48:10;;;;;;;169.60;47.05;;;;;;;3.71;100.00;102249.19;8322999;28;20051;-65
2022/01/26 07:52:13;;;;;;;155.30;45.88;;;;;;;3.73;100.00;102235.78;8332016;28;20046;-64
2022/01/26 07:56:14;;;;;;;170.13;48.65;;;;;;;3.72;99.58;102240.25;8319431;28;20041;-65
2022/01/26 08:00:16;;;;;;;156.40;45.58;;;;;;;3.71;100.00;102238.50;8325548;28;20076;-64
2022/01/26 08:04:16;;;;;;;173.75;47.22;;;;;;;3.67;100.00;102234.19;8331014;28;20103;-65
2022/01/26 08:08:16;;;;;;;162.57;46.58;;;;;;;3.66;100.00;102226.22;8330014;28;20065;-65
2022/01/26 08:12:17;;;;;;;161.45;44.53;;;;;;;3.66;100.00;102247.63;8314805;28;20053;-65
2022/01/26 08:16:17;;;;;;;171.25;47.25;;;;;;;3.68;100.00;102254.66;8329990;28;20045;-65
2022/01/26 08:20:18;;;;;;;183.30;50.67;;;;;;;3.71;100.00;102270.59;8329959;28;20033;-65
2022/01/26 08:24:18;;;;;;;177.07;47.03;;;;;;;3.70;100.00;102278.66;8331430;28;20033;-65
2022/01/26 08:28:26;;;;;;;170.57;46.83;;;;;;;3.73;100.00;102241.13;8330649;28;20097;-65
2022/01/26 08:32:27;;;;;;;177.38;48.13;;;;;;;3.75;100.00;102234.78;8331413;28;20060;-65
2022/01/26 08:36:27;;;;;;;170.93;44.42;;;;;;;3.74;100.00;102254.44;8326068;28;20129;-65
2022/01/26 08:40:28;;;;;;;176.63;46.95;;;;;;;3.78;100.00;102239.13;8329901;28;20300;-64
2022/01/26 08:44:29;;;;;;;175.70;44.30;;;;;;;3.80;100.00;102258.69;8328046;28;20029;-65
2022/01/26 08:48:29;;;;;;;169.73;45.88;;;;;;;3.82;100.00;102263.03;8320791;28;20080;-65
2022/01/26 08:52:29;;;;;;;179.05;44.60;;;;;;;3.86;100.00;102272.72;8327524;28;20065;-65
2022/01/26 08:56:30;;;;;;;162.60;44.40;;;;;;;3.85;99.93;102280.81;8328911;28;20518;-65
2022/01/26 09:00:31;;;;;;;175.32;46.05;;;;;;;3.88;99.98;102278.88;8307572;28;20037;-65
2022/01/26 09:04:31;;;;;;;171.77;43.63;;;;;;;3.90;99.88;102293.06;8325474;28;20061;-65
2022/01/26 09:08:33;;;;;;;169.90;42.03;;;;;;;3.93;99.24;102301.00;8359032;28;20040;-64
2022/01/26 09:12:36;;;;;;;168.40;42.70;;;;;;;3.96;99.41;102302.69;8439130;28;20040;-65
2022/01/26 09:16:37;;;;;;;159.82;42.55;;;;;;;3.98;100.00;102269.59;8427869;28;20448;-64
2022/01/26 09:20:38;;;;;;;173.50;43.95;;;;;;;3.99;100.00;102281.16;8428217;28;20040;-65
2022/01/26 09:24:40;;;;;;;175.48;42.83;;;;;;;3.98;99.82;102295.47;8428302;28;20122;-65
2022/01/26 09:28:41;;;;;;;177.85;45.75;;;;;;;4.03;100.00;102297.03;8409457;28;20040;-65
2022/01/26 09:32:41;;;;;;;179.52;46.17;;;;;;;3.96;100.00;102298.22;8428290;28;20232;-65
2022/01/26 09:36:42;;;;;;;190.38;45.70;;;;;;;3.97;100.00;102299.94;8424943;28;20500;-65
2022/01/26 09:40:46;;;;;;;200.85;49.03;;;;;;;4.00;100.00;102305.19;8407838;28;20047;-65
2022/01/26 09:44:46;;;;;;;180.02;44.42;;;;;;;3.98;100.00;102316.88;8425255;28;20036;-65
2022/01/26 09:48:46;;;;;;;191.95;47.05;;;;;;;4.00;100.00;102309.69;8425248;28;20243;-65
2022/01/26 09:52:48;;;;;;;183.88;44.13;;;;;;;4.03;100.00;102294.38;8392402;28;20044;-65
2022/01/26 09:56:51;;;;;;;184.20;44.88;;;;;;;3.98;100.00;102301.72;8393532;28;20173;-65
2022/01/26 10:01:01;;;;;;;187.07;44.50;;;;;;;3.98;100.00;102301.72;8393529;28;20044;-65
2022/01/26 10:05:07;;;;;;;200.32;46.80;;;;;;;4.03;100.00;102301.56;8399753;28;20056;-65
2022/01/26 10:09:40;;;;;;;187.60;47.75;;;;;;;4.09;100.00;102304.84;8426960;28;20173;-65
2022/01/26 10:18:17;;;;;;;187.80;45.33;;;;;;;4.23;100.00;102316.84;8425644;28;20399;-65
2022/01/26 10:22:25;;;;;;;196.38;43.13;;;;;;;4.17;100.00;102309.06;8425737;28;20209;-65
2022/01/26 10:26:25;;;;;;;178.95;44.83;;;;;;;4.19;100.00;102301.84;8426211;28;20063;-65
2022/01/26 10:30:26;;;;;;;186.48;44.00;;;;;;;4.21;100.00;102302.66;8427350;28;20036;-65
2022/01/26 10:34:27;;;;;;;184.50;43.60;;;;;;;4.22;100.00;102301.72;8426064;28;20032;-65
2022/01/26 10:38:27;;;;;;;182.48;44.30;;;;;;;4.24;100.00;102297.19;8423585;28;20636;-65
2022/01/26 10:42:27;;;;;;;179.80;42.92;;;;;;;4.26;100.00;102285.50;8425936;28;20044;-65
2022/01/26 10:46:32;;;;;;;160.75;40.60;;;;;;;4.28;100.00;102282.75;8425489;28;20491;-65
2022/01/26 10:54:43;;;;;;;144.40;37.63;;;;;;;4.34;100.00;102275.38;8408017;28;20036;-65
2022/01/26 10:58:43;;;;;;;138.25;36.50;;;;;;;4.41;100.00;102276.00;8426575;28;20043;-65
2022/01/26 11:02:47;;;;;;;131.40;36.47;;;;;;;4.37;100.00;102266.34;8424717;28;20445;-65
2022/01/26 11:06:50;;;;;;;;;;;;;;;4.38;100.00;102268.09;8426309;28;20048;-64
2022/01/26 11:10:51;;;;;;;123.47;35.95;;;;;;;4.38;100.00;102252.03;8425317;28;19916;-65
2022/01/26 11:14:57;;;;;;;122.45;33.88;;;;;;;4.43;100.00;102250.06;8421658;28;20079;-65
2022/01/26 11:18:58;;;;;;;106.03;31.10;;;;;;;4.41;100.00;102267.97;8417262;28;20472;-65
2022/01/26 11:23:02;;;;;;;115.32;31.85;;;;;;;4.49;100.00;102279.28;8426047;28;20124;-65
2022/01/26 11:27:05;;;;;;;121.63;33.50;;;;;;;4.48;100.00;102266.81;8431181;28;20052;-65
2022/01/26 11:31:15;;;;;;;105.35;31.95;;;;;;;4.53;99.60;102262.16;8430282;28;20093;-65
2022/01/26 11:35:17;;;;;;;101.50;31.70;;;;;;;4.53;99.04;102267.50;8431236;28;20053;-65
2022/01/26 11:45:17;;;;;;;101.70;32.10;;;;;;;4.56;99.25;102280.78;8431091;28;20529;-64
2022/01/26 11:48:09;;;;;;;104.35;30.83;;;;;;;4.60;99.54;102295.81;8413887;28;20042;-65
2022/01/26 11:52:27;;;;;;;95.32;29.00;;;;;;;4.59;98.29;102304.75;8430970;28;20518;-65
2022/01/26 11:56:28;;;;;;;87.30;26.85;;;;;;;4.57;97.82;102306.66;8430840;28;20044;-65
2022/01/26 12:00:41;;;;;;;91.80;29.38;;;;;;;4.59;98.88;102305.63;8412742;28;20059;-65
2022/01/26 12:04:43;;;;;;;87.20;26.77;;;;;;;4.59;97.98;102286.00;8429102;28;20036;-65
2022/01/26 12:08:45;;;;;;;85.35;28.08;;;;;;;4.51;98.91;102296.16;8431283;28;20119;-65
2022/01/26 12:12:45;;;;;;;87.20;27.58;;;;;;;4.46;99.77;102292.78;8429643;28;20040;-65
2022/01/26 12:16:49;;;;;;;92.40;30.67;;;;;;;4.45;99.52;102291.91;8429990;28;20070;-65
2022/01/26 12:35:10;;;;;;;106.53;32.55;;;;;;;4.49;99.10;102261.41;8395911;28;20036;-65
2022/01/26 12:38:57;;;;;;;101.63;31.90;;;;;;;4.44;99.67;102260.69;8443417;28;20059;-65
2022/01/26 12:43:05;;;;;;;108.95;31.92;;;;;;;4.43;100.00;102260.75;8447774;28;20474;-65
2022/01/26 12:47:06;;;;;;;108.75;32.38;;;;;;;4.43;99.95;102264.31;8430435;28;20420;-65
2022/01/26 12:51:08;;;;;;;99.15;30.98;;;;;;;4.45;98.89;102258.91;8429473;28;20060;-64
2022/01/26 12:55:20;;;;;;;102.43;31.33;;;;;;;4.49;99.38;102276.59;8426117;28;20028;-65
2022/01/26 12:59:21;;;;;;;112.57;32.88;;;;;;;4.52;99.00;102260.41;8426767;28;20040;-65
2022/01/26 13:03:23;;;;;;;105.03;32.47;;;;;;;4.54;97.88;102248.69;8428272;28;20529;-64
2022/01/26 13:07:23;;;;;;;110.57;32.95;;;;;;;4.60;97.94;102243.09;8426939;28;20027;-64
2022/01/26 13:11:29;;;;;;;108.20;32.97;;;;;;;4.66;97.59;102236.66;8427917;28;20502;-64
2022/01/26 13:15:38;;;;;;;105.43;31.58;;;;;;;4.58;96.99;102241.41;8420441;28;20032;-64
2022/01/26 13:26:52;;;;;;;107.63;32.60;;;;;;;4.62;97.29;102235.00;8432537;28;20044;-64
2022/01/26 13:29:02;;;;;;;105.38;33.13;;;;;;;4.60;97.73;102247.59;8444821;28;20054;-65
2022/01/26 13:38:31;;;;;;;113.25;32.42;;;;;;;4.60;97.19;102242.25;8460527;28;20036;-64
2022/01/26 13:41:53;;;;;;;108.25;33.58;;;;;;;4.59;97.75;102236.00;8455178;28;20074;-64
2022/01/26 13:47:02;;;;;;;115.22;33.13;;;;;;;4.55;97.10;102236.19;8425209;28;20032;-64
2022/01/26 13:51:22;;;;;;;112.32;34.00;;;;;;;4.53;97.29;102224.66;8425190;28;20108;-65
2022/01/26 13:59:00;;;;;;;117.65;35.35;;;;;;;4.54;97.78;102223.75;8424584;28;20085;-64
2022/01/26 14:03:04;;;;;;;122.40;34.40;;;;;;;4.54;97.14;102211.19;8425182;28;20048;-65
2022/01/26 14:07:04;;;;;;;115.28;34.88;;;;;;;4.55;98.04;102206.72;8425077;28;20039;-64
2022/01/26 14:11:04;;;;;;;120.60;35.47;;;;;;;4.54;98.46;102205.00;8425489;28;20028;-64
2022/01/26 14:15:08;;;;;;;116.13;35.25;;;;;;;4.52;98.70;102193.47;8425283;28;20043;-64
2022/01/26 14:27:42;;;;;;;126.32;34.65;;;;;;;4.48;99.35;102197.19;8413620;27;20461;-64
2022/01/26 14:32:36;;;;;;;102.80;31.88;;;;;;;4.48;99.32;102189.16;8403282;27;20032;-65
2022/01/26 14:36:28;;;;;;;113.95;32.75;;;;;;;4.46;99.22;102181.19;8403143;27;20044;-64
2022/01/26 14:40:43;;;;;;;116.90;33.15;;;;;;;4.42;98.30;102168.84;8419897;28;20033;-65
2022/01/26 14:54:42;;;;;;;109.15;31.80;;;;;;;4.45;97.04;102157.16;8393666;28;20066;-64
2022/01/26 15:33:42;;;;;;;118.82;33.25;;;;;;;4.46;96.66;102194.59;8383733;28;20078;-65
2022/01/26 15:41:36;;;;;;;116.93;34.88;;;;;;;4.41;96.80;102183.16;8373802;28;20536;-65
2022/01/26 15:49:58;;;;;;;111.47;33.15;;;;;;;4.43;95.98;102188.47;8388824;28;20048;-65
2022/01/26 15:58:32;;;;;;;108.20;33.40;;;;;;;4.43;95.95;102180.44;8393819;28;20454;-65
2022/01/26 16:07:11;;;;;;;105.32;32.10;;;;;;;4.42;96.27;102195.63;8372058;28;20037;-65
2022/01/26 16:16:49;;;;;;;97.95;28.88;;;;;;;4.37;97.12;102212.81;8349757;28;20390;-64
2022/01/26 17:12:57;;;;;;;79.90;26.42;;;;;;;4.33;97.42;102168.34;8361738;28;20048;-64
2022/01/26 17:25:30;;;;;;;78.72;24.75;;;;;;;4.34;97.48;102170.09;8346254;28;20516;-64
2022/01/26 17:46:44;;;;;;;81.22;26.65;;;;;;;4.36;97.84;102160.19;8329447;28;20050;-64
2022/01/26 18:05:04;;;;;;;67.55;24.50;;;;;;;4.33;97.75;102155.81;8337954;28;20041;-64
2022/01/26 18:14:52;;;;;;;61.65;21.50;;;;;;;4.34;97.29;102162.06;8350495;27;21117;-64
2022/01/26 18:27:05;;;;;;;68.72;23.27;;;;;;;4.35;96.80;102140.59;8360887;28;20051;-64
2022/01/26 18:38:50;;;;;;;55.63;20.65;;;;;;;4.37;96.12;102133.38;8371181;27;20362;-64
2022/01/26 18:46:52;;;;;;;60.42;20.52;;;;;;;4.40;96.27;102127.00;8373215;28;20037;-64
2022/01/26 18:50:53;;;;;;;66.30;20.85;;;;;;;4.38;96.26;102118.16;8383064;28;20063;-64
2022/01/26 18:54:54;;;;;;;58.55;20.02;;;;;;;4.41;96.33;102123.38;8368485;28;20045;-64
2022/01/26 18:58:54;;;;;;;57.80;19.30;;;;;;;4.42;95.79;102111.75;8383239;28;20071;-64
2022/01/26 19:02:54;;;;;;;54.47;20.20;;;;;;;4.43;95.30;102116.19;8377642;28;20063;-64
2022/01/26 19:06:56;;;;;;;50.95;17.85;;;;;;;4.43;95.27;102110.81;8384586;28;20036;-64
2022/01/26 19:10:57;;;;;;;58.80;20.35;;;;;;;4.43;94.92;102105.47;8383540;28;20040;-64
2022/01/26 19:15:02;;;;;;;59.60;18.83;;;;;;;4.41;94.98;102101.97;8339974;28;20105;-64
2022/01/26 19:19:15;;;;;;;52.00;18.52;;;;;;;4.41;95.20;102099.28;8332050;28;20045;-64
2022/01/26 19:23:43;;;;;;;53.63;19.88;;;;;;;4.43;95.08;102100.09;8301279;28;20485;-64
2022/01/26 19:27:49;;;;;;;52.25;19.17;;;;;;;4.40;95.54;102105.59;8332451;28;20520;-64
2022/01/26 19:53:17;;;;;;;56.50;19.60;;;;;;;4.33;95.15;102101.44;8299047;28;20033;-64
2022/01/26 19:57:18;;;;;;;50.33;18.17;;;;;;;4.33;95.04;102104.97;8288861;28;20069;-64
2022/01/26 20:01:18;;;;;;;52.88;18.95;;;;;;;4.33;95.64;102094.25;8277862;28;20459;-64
2022/01/26 20:05:19;;;;;;;55.35;18.67;;;;;;;4.30;95.80;102098.88;8300208;28;20046;-64
2022/01/26 20:09:28;;;;;;;62.22;20.10;;;;;;;4.28;96.31;102095.38;8295549;28;20490;-64
2022/01/26 20:13:32;;;;;;;64.40;20.77;;;;;;;4.27;95.95;102099.00;8291858;28;20065;-64
2022/01/26 20:17:33;;;;;;;;;;;;;;;4.33;96.12;102098.75;8299400;28;20044;-64
2022/01/26 20:21:33;;;;;;;65.80;21.63;;;;;;;4.33;96.27;102090.72;8307773;28;20381;-64
2022/01/26 20:25:33;;;;;;;69.80;21.70;;;;;;;4.32;96.20;102096.97;8334706;28;20076;-64
2022/01/26 20:29:41;;;;;;;66.97;22.42;;;;;;;4.25;96.23;102085.69;8343330;28;20051;-64
2022/01/26 20:33:42;;;;;;;71.80;23.02;;;;;;;4.31;96.19;102098.81;8309418;28;20502;-64
2022/01/26 20:37:43;;;;;;;77.28;24.75;;;;;;;4.30;96.19;102093.53;8308747;28;20050;-64
2022/01/26 20:41:44;;;;;;;71.15;23.17;;;;;;;4.22;96.70;102100.97;8298984;28;20033;-64
2022/01/26 20:45:44;;;;;;;78.47;23.77;;;;;;;4.25;96.41;102095.50;8295621;28;20026;-64
2022/01/26 20:49:45;;;;;;;83.28;24.50;;;;;;;4.27;96.28;102093.66;8301376;28;20161;-64
2022/01/26 20:53:47;;;;;;;76.55;23.00;;;;;;;4.23;96.24;102092.00;8311481;28;20101;-64
2022/01/26 20:57:48;;;;;;;73.75;23.88;;;;;;;4.19;97.22;102091.28;8282320;28;20049;-64
2022/01/26 21:01:49;;;;;;;80.78;24.75;;;;;;;4.22;97.13;102079.56;8296369;28;20054;-64
2022/01/26 21:05:50;;;;;;;78.20;24.55;;;;;;;4.18;97.26;102080.63;8304925;28;20033;-64
2022/01/26 21:09:50;;;;;;;85.13;25.35;;;;;;;4.20;96.85;102076.94;8311217;28;20065;-64
2022/01/26 21:13:54;;;;;;;82.25;24.17;;;;;;;4.23;96.83;102073.25;8310975;28;20065;-64
2022/01/26 21:17:54;;;;;;;79.50;23.55;;;;;;;4.22;96.75;102053.69;8300091;28;20046;-64
2022/01/26 21:21:55;;;;;;;73.05;23.42;;;;;;;4.21;96.65;102057.28;8311418;28;20049;-64
2022/01/26 21:25:56;;;;;;;74.03;21.48;;;;;;;4.25;96.95;102058.91;8295925;28;20060;-64
2022/01/26 21:29:56;;;;;;;77.22;25.42;;;;;;;4.26;96.56;102051.72;8294908;28;20505;-64
2022/01/26 21:33:57;;;;;;;69.35;22.35;;;;;;;4.26;96.40;102043.69;8295232;28;20480;-64
2022/01/26 21:37:58;;;;;;;70.25;23.08;;;;;;;4.22;96.47;102048.31;8290518;28;20489;-65
2022/01/26 21:42:03;;;;;;;73.00;21.52;;;;;;;4.17;96.31;102038.75;8297724;28;20124;-64
2022/01/26 21:46:04;;;;;;;71.60;22.98;;;;;;;4.17;97.46;102022.69;8285461;28;20138;-64
2022/01/26 21:50:06;;;;;;;72.75;22.67;;;;;;;4.16;97.38;102020.94;8310609;28;20069;-64
2022/01/26 21:54:07;;;;;;;71.63;22.05;;;;;;;4.15;97.70;102013.84;8276171;28;20042;-64
2022/01/26 21:58:07;;;;;;;67.50;21.90;;;;;;;4.18;97.83;102008.38;8312510;28;20042;-65
2022/01/26 22:02:10;;;;;;;67.82;21.23;;;;;;;4.13;97.69;102010.34;8300102;28;20045;-64
2022/01/26 22:06:12;;;;;;;68.18;21.67;;;;;;;4.18;97.87;102003.03;8297047;28;20477;-64
2022/01/26 22:10:12;;;;;;;63.80;22.20;;;;;;;4.19;97.63;102010.09;8312970;28;20045;-64
2022/01/26 22:14:13;;;;;;;72.38;24.23;;;;;;;4.23;96.93;102011.72;8280066;28;20049;-64
2022/01/26 22:18:14;;;;;;;67.15;23.48;;;;;;;4.24;97.15;102002.75;8295917;28;20045;-64
2022/01/26 22:22:16;;;;;;;67.28;22.85;;;;;;;4.23;97.51;102001.88;8291458;28;20049;-64
2022/01/26 22:26:17;;;;;;;65.18;21.98;;;;;;;4.22;97.34;101999.28;8293836;28;20517;-64
2022/01/26 22:30:17;;;;;;;65.45;23.15;;;;;;;4.25;97.67;101993.78;8303961;28;20391;-65
2022/01/26 22:34:19;;;;;;;67.28;23.10;;;;;;;4.26;97.25;101988.38;8310035;28;20048;-64
2022/01/26 22:38:21;;;;;;;64.32;22.30;;;;;;;4.29;97.94;101990.91;8327905;28;20575;-64
2022/01/26 22:42:22;;;;;;;71.20;23.70;;;;;;;4.30;98.18;101999.81;8327856;28;20060;-64
2022/01/26 22:46:23;;;;;;;65.00;22.85;;;;;;;4.34;97.81;102009.47;8328166;28;20037;-64
2022/01/26 22:50:24;;;;;;;58.40;21.95;;;;;;;4.47;97.34;102010.69;8328093;28;20539;-64
2022/01/26 22:54:24;;;;;;;59.45;22.55;;;;;;;4.60;96.43;102011.91;8326434;28;20382;-64
2022/01/26 22:58:25;;;;;;;54.20;21.30;;;;;;;4.66;94.87;102014.31;8316690;28;20046;-64
2022/01/26 23:06:40;;;;;;;57.63;21.75;;;;;;;4.70;93.47;102014.09;8417376;27;20480;-66
2022/01/26 23:10:40;;;;;;;62.10;23.80;;;;;;;4.68;93.81;102005.28;8430032;28;20044;-64
2022/01/26 23:14:41;;;;;;;54.28;22.15;;;;;;;4.68;93.05;102005.28;8390295;28;20040;-64
2022/01/26 23:18:42;;;;;;;57.58;24.23;;;;;;;4.64;93.22;102000.13;8379401;28;20056;-64
2022/01/26 23:22:42;;;;;;;64.32;25.60;;;;;;;4.60;93.51;102001.19;8379232;28;20064;-64
2022/01/26 23:26:48;;;;;;;74.22;28.33;;;;;;;4.57;93.17;102006.69;8381748;28;20070;-64
2022/01/26 23:31:10;;;;;;;73.97;28.25;;;;;;;4.56;93.46;101999.56;8391773;28;20045;-64
2022/01/26 23:35:29;;;;;;;74.18;27.20;;;;;;;4.53;92.16;102005.06;8377921;28;20032;-64
2022/01/26 23:39:47;;;;;;;69.28;26.77;;;;;;;4.49;92.38;102003.47;8345665;28;20042;-64
2022/01/26 23:58:24;;;;;;;71.50;25.77;;;;;;;4.29;93.07;102011.44;8409062;28;20082;-64
